createdAt,value
2019-03-27T00:00:20.652Z,26.73
2019-03-27T00:02:49.135Z,23.95
2019-03-27T00:05:17.546Z,21.23
2019-03-27T00:07:46.028Z,21.30
2019-03-27T00:10:14.587Z,22.90
2019-03-27T00:12:43.027Z,18.67
2019-03-27T00:15:13.713Z,18.73
2019-03-27T00:17:41.527Z,18.87
2019-03-27T00:20:10.320Z,17.10
2019-03-27T00:22:38.692Z,15.63
2019-03-27T00:25:10.093Z,13.20
2019-03-27T00:27:38.512Z,13.50
2019-03-27T00:30:08.277Z,14.93
2019-03-27T00:32:36.710Z,10.10
2019-03-27T00:35:06.294Z,11.55
2019-03-27T00:37:34.697Z,9.75
2019-03-27T00:40:04.046Z,7.05
2019-03-27T00:42:32.523Z,6.37
2019-03-27T00:45:01.137Z,6.28
2019-03-27T00:47:29.570Z,6.83
2019-03-27T00:49:57.993Z,6.20
2019-03-27T00:52:26.365Z,6.05
2019-03-27T00:54:54.846Z,6.25
2019-03-27T00:57:23.259Z,5.65
2019-03-27T00:59:51.669Z,4.95
2019-03-27T01:02:20.091Z,6.28
2019-03-27T01:04:48.461Z,6.65
2019-03-27T01:07:16.902Z,6.92
2019-03-27T01:09:45.284Z,6.45
2019-03-27T01:12:13.726Z,6.28
2019-03-27T01:14:42.250Z,5.42
2019-03-27T01:17:10.637Z,5.42
2019-03-27T01:19:39.071Z,7.87
2019-03-27T01:22:07.460Z,5.95
2019-03-27T01:24:35.957Z,6.20
2019-03-27T01:27:04.352Z,5.17
2019-03-27T01:29:32.743Z,4.37
2019-03-27T01:32:01.108Z,4.23
2019-03-27T01:34:29.560Z,3.90
2019-03-27T01:36:57.932Z,5.00
2019-03-27T01:39:26.321Z,5.03
2019-03-27T01:41:54.703Z,5.80
2019-03-27T01:44:23.203Z,5.40
2019-03-27T01:46:51.616Z,6.05
2019-03-27T01:49:20.030Z,5.33
2019-03-27T01:51:48.445Z,6.00
2019-03-27T01:54:16.841Z,7.00
2019-03-27T01:56:45.299Z,5.22
2019-03-27T01:59:13.778Z,7.03
2019-03-27T02:01:42.192Z,6.47
2019-03-27T02:04:10.566Z,6.20
2019-03-27T02:06:38.984Z,6.28
2019-03-27T02:09:07.604Z,7.65
2019-03-27T02:11:36.000Z,8.63
2019-03-27T02:14:04.411Z,9.35
2019-03-27T02:16:32.846Z,8.90
2019-03-27T02:19:01.317Z,7.90
2019-03-27T02:21:29.754Z,9.23
2019-03-27T02:23:58.208Z,7.70
2019-03-27T02:26:26.663Z,8.58
2019-03-27T02:28:55.065Z,8.48
2019-03-27T02:31:23.525Z,7.30
2019-03-27T02:33:52.110Z,8.03
2019-03-27T02:36:20.589Z,7.55
2019-03-27T02:38:48.968Z,7.80
2019-03-27T02:41:17.383Z,7.37
2019-03-27T02:43:45.821Z,8.48
2019-03-27T02:46:24.587Z,5.53
2019-03-27T02:48:44.375Z,4.87
2019-03-27T02:51:12.913Z,4.75
2019-03-27T02:53:41.322Z,4.97
2019-03-27T02:56:09.731Z,5.35
2019-03-27T02:58:38.126Z,4.83
2019-03-27T03:01:06.588Z,4.90
2019-03-27T03:03:35.007Z,5.20
2019-03-27T03:06:03.400Z,5.20
2019-03-27T03:08:31.818Z,4.90
2019-03-27T03:11:00.230Z,4.75
2019-03-27T03:13:28.644Z,4.50
2019-03-27T03:15:57.059Z,4.72
2019-03-27T03:18:25.486Z,4.95
2019-03-27T03:20:53.860Z,4.42
2019-03-27T03:23:22.253Z,4.08
2019-03-27T03:25:50.718Z,4.42
2019-03-27T03:28:19.085Z,4.90
2019-03-27T03:30:47.512Z,3.90
2019-03-27T03:33:15.858Z,4.72
2019-03-27T03:35:44.279Z,4.40
2019-03-27T03:38:12.815Z,4.35
2019-03-27T03:40:41.216Z,4.05
2019-03-27T03:43:09.651Z,4.55
2019-03-27T03:45:38.067Z,5.03
2019-03-27T03:48:06.446Z,4.95
2019-03-27T03:50:39.427Z,3.95
2019-03-27T03:53:09.480Z,5.28
2019-03-27T03:55:38.278Z,4.17
2019-03-27T03:58:12.770Z,4.05
2019-03-27T04:00:41.181Z,4.78
2019-03-27T04:03:09.566Z,4.53
2019-03-27T04:05:37.992Z,4.67
2019-03-27T04:08:06.405Z,4.97
2019-03-27T04:10:34.809Z,5.85
2019-03-27T04:13:03.278Z,6.03
2019-03-27T04:15:31.659Z,6.00
2019-03-27T04:18:00.190Z,5.87
2019-03-27T04:20:28.696Z,7.83
2019-03-27T04:22:57.141Z,9.38
2019-03-27T04:25:25.574Z,5.62
2019-03-27T04:27:54.031Z,6.53
2019-03-27T04:30:22.470Z,10.93
2019-03-27T04:32:50.966Z,9.68
2019-03-27T04:35:19.342Z,8.63
2019-03-27T04:37:47.758Z,6.60
2019-03-27T04:40:16.190Z,5.85
2019-03-27T04:42:44.601Z,5.95
2019-03-27T04:45:13.053Z,5.10
2019-03-27T04:47:41.442Z,5.00
2019-03-27T04:50:09.922Z,5.58
2019-03-27T04:52:38.375Z,4.62
2019-03-27T04:55:06.818Z,6.12
2019-03-27T04:57:35.234Z,5.47
2019-03-27T05:00:06.343Z,5.08
2019-03-27T05:02:34.795Z,4.33
2019-03-27T05:05:04.639Z,4.75
2019-03-27T05:07:33.056Z,5.50
2019-03-27T05:10:01.468Z,5.47
2019-03-27T05:12:29.847Z,5.03
2019-03-27T05:14:58.221Z,5.90
2019-03-27T05:17:26.728Z,5.20
2019-03-27T05:19:55.210Z,5.72
2019-03-27T05:22:23.542Z,7.25
2019-03-27T05:24:51.955Z,6.77
2019-03-27T05:27:20.333Z,8.23
2019-03-27T05:29:48.774Z,5.77
2019-03-27T05:32:17.154Z,6.10
2019-03-27T05:34:45.658Z,6.30
2019-03-27T05:37:14.067Z,7.70
2019-03-27T05:39:42.538Z,7.55
2019-03-27T05:42:11.030Z,6.20
2019-03-27T05:44:39.392Z,9.05
2019-03-27T05:47:07.760Z,9.05
2019-03-27T05:49:36.227Z,9.50
2019-03-27T05:52:04.651Z,9.57
2019-03-27T05:54:33.195Z,12.43
2019-03-27T05:57:01.591Z,8.08
2019-03-27T05:59:29.993Z,7.30
2019-03-27T06:01:58.413Z,6.43
2019-03-27T06:04:26.910Z,6.73
2019-03-27T06:06:55.307Z,6.77
2019-03-27T06:09:23.697Z,6.50
2019-03-27T06:11:52.138Z,5.65
2019-03-27T06:14:20.598Z,6.43
2019-03-27T06:16:49.008Z,7.67
2019-03-27T06:19:17.434Z,7.35
2019-03-27T06:21:45.797Z,6.10
2019-03-27T06:24:14.344Z,9.30
2019-03-27T06:26:42.765Z,6.37
2019-03-27T06:29:11.158Z,5.60
2019-03-27T06:31:39.601Z,5.95
2019-03-27T06:34:07.960Z,5.73
2019-03-27T06:36:36.337Z,5.50
2019-03-27T06:39:05.827Z,6.85
2019-03-27T06:41:34.200Z,5.53
2019-03-27T06:44:02.622Z,4.60
2019-03-27T06:46:31.027Z,5.10
2019-03-27T06:48:59.497Z,5.60
2019-03-27T06:51:39.501Z,2.90
2019-03-27T06:53:57.960Z,7.70
2019-03-27T06:56:26.442Z,4.30
2019-03-27T06:58:55.224Z,3.10
2019-03-27T07:01:23.680Z,3.92
2019-03-27T07:03:52.097Z,4.07
2019-03-27T07:06:20.582Z,3.47
2019-03-27T07:08:48.998Z,4.58
2019-03-27T07:11:17.467Z,3.90
2019-03-27T07:13:45.890Z,3.60
2019-03-27T07:16:14.381Z,2.98
2019-03-27T07:18:42.792Z,5.72
2019-03-27T07:21:11.221Z,4.87
2019-03-27T07:23:39.611Z,3.47
2019-03-27T07:26:08.060Z,5.50
2019-03-27T07:28:36.478Z,10.93
2019-03-27T07:31:04.975Z,5.83
2019-03-27T07:33:33.382Z,5.87
2019-03-27T07:36:01.714Z,4.67
2019-03-27T07:38:30.121Z,2.75
2019-03-27T07:40:58.592Z,3.70
2019-03-27T07:43:27.019Z,3.13
2019-03-27T07:45:55.432Z,3.50
2019-03-27T07:48:23.835Z,2.80
2019-03-27T07:50:52.240Z,2.65
2019-03-27T07:53:22.421Z,2.20
2019-03-27T07:55:50.875Z,3.37
2019-03-27T07:58:19.281Z,3.73
2019-03-27T08:00:47.809Z,5.30
2019-03-27T08:03:16.203Z,2.63
2019-03-27T08:05:44.668Z,2.20
2019-03-27T08:08:13.085Z,3.07
2019-03-27T08:10:42.554Z,4.30
2019-03-27T08:13:10.933Z,3.37
2019-03-27T08:15:40.837Z,3.83
2019-03-27T08:18:09.588Z,3.10
2019-03-27T08:20:37.982Z,2.80
2019-03-27T08:23:06.400Z,3.08
2019-03-27T08:25:34.839Z,2.87
2019-03-27T08:28:03.249Z,2.15
2019-03-27T08:30:31.669Z,1.93
2019-03-27T08:33:00.070Z,2.30
2019-03-27T08:35:28.456Z,2.70
2019-03-27T08:37:56.837Z,1.80
2019-03-27T08:40:25.221Z,2.08
2019-03-27T08:42:53.606Z,4.80
2019-03-27T08:45:22.043Z,1.93
2019-03-27T08:47:50.520Z,2.40
2019-03-27T08:50:18.950Z,1.50
2019-03-27T08:52:47.354Z,2.40
2019-03-27T08:55:15.769Z,2.70
2019-03-27T08:57:44.202Z,2.55
2019-03-27T09:00:13.182Z,3.03
2019-03-27T09:02:41.591Z,1.82
2019-03-27T09:05:10.010Z,1.70
2019-03-27T09:07:38.425Z,1.50
2019-03-27T09:10:07.393Z,2.13
2019-03-27T09:12:36.383Z,8.70
2019-03-27T09:15:06.714Z,2.40
2019-03-27T09:17:35.112Z,1.52
2019-03-27T09:20:04.679Z,1.47
2019-03-27T09:22:33.085Z,1.42
2019-03-27T09:25:01.667Z,3.40
2019-03-27T09:27:30.060Z,3.73
2019-03-27T09:29:58.467Z,2.83
2019-03-27T09:32:26.994Z,2.30
2019-03-27T09:34:55.402Z,1.50
2019-03-27T09:37:23.839Z,2.10
2019-03-27T09:39:52.226Z,1.97
2019-03-27T09:42:20.625Z,1.37
2019-03-27T09:44:49.039Z,1.90
2019-03-27T09:47:17.470Z,1.90
2019-03-27T09:49:49.716Z,2.72
2019-03-27T09:52:15.932Z,2.40
2019-03-27T09:54:44.410Z,4.67
2019-03-27T09:57:12.790Z,2.90
2019-03-27T09:59:41.169Z,1.70
2019-03-27T10:02:09.620Z,2.05
2019-03-27T10:04:38.018Z,2.13
2019-03-27T10:07:06.454Z,2.43
2019-03-27T10:09:34.853Z,2.12
2019-03-27T10:12:03.255Z,4.60
2019-03-27T10:14:31.686Z,4.00
2019-03-27T10:17:00.046Z,1.62
2019-03-27T10:19:28.429Z,1.67
2019-03-27T10:21:56.920Z,3.33
2019-03-27T10:24:25.403Z,2.60
2019-03-27T10:26:53.775Z,3.10
2019-03-27T10:29:22.189Z,1.90
2019-03-27T10:31:50.570Z,2.40
2019-03-27T10:34:18.978Z,3.05
2019-03-27T10:36:47.353Z,2.50
2019-03-27T10:39:15.753Z,2.47
2019-03-27T10:41:44.134Z,2.90
2019-03-27T10:44:12.541Z,2.47
2019-03-27T10:46:40.909Z,4.47
2019-03-27T10:49:09.313Z,2.50
2019-03-27T10:51:37.710Z,2.00
2019-03-27T10:54:06.113Z,2.42
2019-03-27T10:56:34.515Z,3.72
2019-03-27T10:59:02.913Z,2.73
2019-03-27T11:01:31.315Z,1.98
2019-03-27T11:03:59.797Z,2.75
2019-03-27T11:06:28.141Z,2.40
2019-03-27T11:08:56.554Z,3.10
2019-03-27T11:11:24.994Z,2.33
2019-03-27T11:13:53.385Z,1.93
2019-03-27T11:16:21.866Z,1.95
2019-03-27T11:18:50.257Z,2.30
2019-03-27T11:21:18.691Z,1.62
2019-03-27T11:23:47.123Z,1.90
2019-03-27T11:26:15.509Z,1.90
2019-03-27T11:28:44.062Z,2.40
2019-03-27T11:31:12.421Z,1.50
2019-03-27T11:33:40.923Z,2.02
2019-03-27T11:36:09.402Z,2.00
2019-03-27T11:38:37.926Z,1.77
2019-03-27T11:41:06.387Z,3.52
2019-03-27T11:43:34.794Z,3.08
2019-03-27T11:46:03.206Z,1.70
2019-03-27T11:48:31.615Z,1.90
2019-03-27T11:50:59.988Z,2.00
2019-03-27T11:53:28.427Z,2.10
2019-03-27T11:55:56.824Z,1.80
2019-03-27T11:58:25.216Z,2.50
2019-03-27T12:00:55.075Z,1.98
2019-03-27T12:03:23.847Z,2.85
2019-03-27T12:05:52.399Z,2.42
2019-03-27T12:08:20.779Z,2.25
2019-03-27T12:10:49.267Z,2.42
2019-03-27T12:13:17.645Z,2.10
2019-03-27T12:15:46.036Z,3.70
2019-03-27T12:18:14.844Z,3.62
2019-03-27T12:20:43.238Z,2.02
2019-03-27T12:23:11.670Z,2.13
2019-03-27T12:25:40.103Z,2.27
2019-03-27T12:28:08.484Z,2.77
2019-03-27T12:30:36.882Z,3.30
2019-03-27T12:33:05.274Z,4.42
2019-03-27T12:35:33.723Z,2.27
2019-03-27T12:38:04.397Z,1.97
2019-03-27T12:40:32.145Z,1.70
2019-03-27T12:43:00.569Z,2.22
2019-03-27T12:45:28.903Z,2.58
2019-03-27T12:47:57.432Z,3.17
2019-03-27T12:50:25.739Z,2.47
2019-03-27T12:52:54.144Z,1.87
2019-03-27T12:55:22.737Z,1.90
2019-03-27T12:57:51.141Z,2.55
2019-03-27T13:00:19.550Z,2.72
2019-03-27T13:02:47.919Z,2.35
2019-03-27T13:05:16.329Z,2.52
2019-03-27T13:07:50.202Z,3.12
2019-03-27T13:10:14.835Z,2.47
2019-03-27T13:12:43.337Z,2.80
2019-03-27T13:15:11.720Z,1.83
2019-03-27T13:17:40.128Z,2.30
2019-03-27T13:20:08.551Z,2.77
2019-03-27T13:22:38.409Z,2.40
2019-03-27T13:25:07.410Z,1.95
2019-03-27T13:27:35.868Z,2.87
2019-03-27T13:30:06.574Z,2.50
2019-03-27T13:32:34.969Z,2.25
2019-03-27T13:35:04.415Z,2.00
2019-03-27T13:40:00.585Z,2.02
2019-03-27T13:42:29.134Z,2.17
2019-03-27T13:44:57.584Z,2.17
2019-03-27T13:47:26.058Z,2.43
2019-03-27T13:49:54.421Z,2.10
2019-03-27T13:52:22.797Z,1.92
2019-03-27T13:54:51.206Z,2.42
2019-03-27T13:57:19.604Z,2.47
2019-03-27T13:59:48.026Z,2.25
2019-03-27T14:02:16.454Z,1.70
2019-03-27T14:04:44.864Z,1.85
2019-03-27T14:07:13.399Z,1.60
2019-03-27T14:09:41.789Z,2.10
2019-03-27T14:12:10.194Z,1.93
2019-03-27T14:14:49.570Z,1.95
2019-03-27T14:17:08.647Z,1.87
2019-03-27T14:19:37.095Z,1.60
2019-03-27T14:22:05.607Z,1.67
2019-03-27T14:24:33.973Z,1.73
2019-03-27T14:27:02.359Z,2.65
2019-03-27T14:29:30.770Z,1.98
2019-03-27T14:31:59.189Z,1.97
2019-03-27T14:34:27.582Z,1.77
2019-03-27T14:36:55.953Z,1.83
2019-03-27T14:39:24.370Z,1.82
2019-03-27T14:41:52.766Z,1.80
2019-03-27T14:44:21.185Z,2.10
2019-03-27T14:46:49.579Z,2.03
2019-03-27T14:49:18.023Z,1.90
2019-03-27T14:51:46.419Z,1.80
2019-03-27T14:54:14.814Z,1.30
2019-03-27T14:56:43.217Z,1.83
2019-03-27T14:59:11.591Z,1.85
2019-03-27T15:01:40.010Z,4.55
2019-03-27T15:04:08.385Z,2.70
2019-03-27T15:06:36.828Z,3.02
2019-03-27T15:09:07.354Z,2.40
2019-03-27T15:11:35.750Z,2.87
2019-03-27T15:14:04.153Z,3.20
2019-03-27T15:16:32.638Z,2.03
2019-03-27T15:19:00.953Z,2.07
2019-03-27T15:21:29.373Z,2.30
2019-03-27T15:23:57.842Z,2.30
2019-03-27T15:26:26.241Z,2.27
2019-03-27T15:28:54.643Z,2.37
2019-03-27T15:31:23.061Z,3.13
2019-03-27T15:33:51.493Z,2.50
2019-03-27T15:36:19.845Z,2.77
2019-03-27T15:38:48.214Z,3.87
2019-03-27T15:41:16.616Z,3.37
2019-03-27T15:43:45.028Z,3.17
2019-03-27T15:46:13.443Z,5.03
2019-03-27T15:48:41.809Z,3.45
2019-03-27T15:51:10.262Z,4.33
2019-03-27T15:53:38.672Z,4.43
2019-03-27T15:56:07.080Z,5.03
2019-03-27T15:58:35.477Z,4.23
2019-03-27T16:01:04.246Z,3.87
2019-03-27T16:03:32.624Z,3.40
2019-03-27T16:06:01.026Z,3.30
2019-03-27T16:08:29.461Z,3.03
2019-03-27T16:10:57.841Z,3.60
2019-03-27T16:13:26.203Z,3.75
2019-03-27T16:15:54.646Z,3.07
2019-03-27T16:18:23.231Z,3.00
2019-03-27T16:20:51.639Z,3.12
2019-03-27T16:23:20.045Z,3.73
2019-03-27T16:25:48.425Z,3.43
2019-03-27T16:28:16.808Z,3.92
2019-03-27T16:30:45.222Z,3.27
2019-03-27T16:33:13.628Z,2.80
2019-03-27T16:35:42.047Z,2.77
2019-03-27T16:38:10.492Z,3.10
2019-03-27T16:40:44.952Z,2.93
2019-03-27T16:43:13.325Z,3.37
2019-03-27T16:45:41.814Z,3.70
2019-03-27T16:48:10.278Z,4.33
2019-03-27T16:50:38.711Z,6.40
2019-03-27T16:53:07.146Z,5.07
2019-03-27T16:55:35.541Z,5.20
2019-03-27T16:58:03.945Z,4.50
2019-03-27T17:00:32.321Z,5.20
2019-03-27T17:03:00.873Z,4.53
2019-03-27T17:05:29.265Z,6.33
2019-03-27T17:07:57.672Z,4.43
2019-03-27T17:10:26.078Z,4.83
2019-03-27T17:12:54.445Z,4.62
2019-03-27T17:15:22.849Z,4.70
2019-03-27T17:17:51.229Z,4.25
2019-03-27T17:20:19.639Z,3.07
2019-03-27T17:22:48.013Z,2.43
2019-03-27T17:25:16.400Z,2.80
2019-03-27T17:27:44.817Z,3.23
2019-03-27T17:30:14.389Z,3.27
2019-03-27T17:32:42.739Z,3.10
2019-03-27T17:35:11.121Z,4.35
2019-03-27T17:37:39.518Z,5.33
2019-03-27T17:40:07.930Z,7.63
2019-03-27T17:42:36.339Z,4.78
2019-03-27T17:45:06.286Z,5.03
2019-03-27T17:47:34.696Z,4.42
2019-03-27T17:50:03.267Z,4.50
2019-03-27T17:52:31.687Z,4.25
2019-03-27T17:55:00.259Z,4.30
2019-03-27T17:57:28.876Z,7.30
2019-03-27T17:59:57.256Z,5.13
2019-03-27T18:02:26.767Z,5.35
2019-03-27T18:04:55.211Z,5.17
2019-03-27T18:07:23.652Z,5.40
2019-03-27T18:09:52.074Z,6.13
2019-03-27T18:12:20.465Z,6.70
2019-03-27T18:14:48.874Z,10.23
2019-03-27T18:17:17.381Z,10.28
2019-03-27T18:19:45.789Z,11.15
2019-03-27T18:22:14.197Z,11.73
2019-03-27T18:24:42.630Z,10.57
2019-03-27T18:27:11.043Z,8.13
2019-03-27T18:29:39.487Z,6.20
2019-03-27T18:32:07.861Z,5.90
2019-03-27T18:34:36.438Z,5.70
2019-03-27T18:37:04.818Z,5.50
2019-03-27T18:39:33.219Z,6.87
2019-03-27T18:42:01.594Z,5.73
2019-03-27T18:44:29.968Z,5.00
2019-03-27T18:46:58.374Z,5.47
2019-03-27T18:49:26.786Z,5.23
2019-03-27T18:51:55.166Z,5.07
2019-03-27T18:54:23.708Z,4.50
2019-03-27T18:56:52.149Z,4.03
2019-03-27T18:59:20.560Z,4.60
2019-03-27T19:01:49.070Z,4.10
2019-03-27T19:04:17.669Z,4.35
2019-03-27T19:06:46.033Z,4.37
2019-03-27T19:09:14.454Z,4.30
2019-03-27T19:11:43.297Z,3.80
2019-03-27T19:14:11.752Z,4.10
2019-03-27T19:16:40.143Z,4.07
2019-03-27T19:19:08.515Z,4.53
2019-03-27T19:21:36.945Z,4.43
2019-03-27T19:24:13.531Z,4.03
2019-03-27T19:26:35.402Z,4.25
2019-03-27T19:29:03.798Z,4.27
2019-03-27T19:31:32.279Z,4.90
2019-03-27T19:34:00.679Z,5.17
2019-03-27T19:36:29.110Z,5.37
2019-03-27T19:38:57.486Z,4.77
2019-03-27T19:41:25.891Z,4.73
2019-03-27T19:43:54.297Z,4.97
2019-03-27T19:46:22.670Z,5.00
2019-03-27T19:48:51.089Z,6.05
2019-03-27T19:51:19.496Z,6.03
2019-03-27T19:53:48.004Z,5.07
2019-03-27T19:56:16.419Z,6.05
2019-03-27T19:58:44.810Z,6.13
2019-03-27T20:01:13.219Z,6.50
2019-03-27T20:03:41.652Z,6.67
2019-03-27T20:06:10.103Z,7.40
2019-03-27T20:08:38.541Z,7.63
2019-03-27T20:11:06.934Z,7.97
2019-03-27T20:13:35.361Z,8.73
2019-03-27T20:16:03.786Z,8.53
2019-03-27T20:18:32.193Z,7.03
2019-03-27T20:21:00.680Z,7.17
2019-03-27T20:23:29.142Z,7.33
2019-03-27T20:25:57.567Z,7.90
2019-03-27T20:28:25.906Z,8.90
2019-03-27T20:30:54.314Z,8.30
2019-03-27T20:33:22.707Z,8.53
2019-03-27T20:35:51.193Z,8.20
2019-03-27T20:38:19.589Z,7.33
2019-03-27T20:40:47.999Z,8.08
2019-03-27T20:43:16.403Z,8.27
2019-03-27T20:45:44.801Z,7.90
2019-03-27T20:48:13.235Z,6.53
2019-03-27T20:50:41.732Z,8.63
2019-03-27T20:53:10.105Z,7.83
2019-03-27T20:55:38.537Z,7.62
2019-03-27T20:58:06.941Z,8.27
2019-03-27T21:00:35.377Z,8.47
2019-03-27T21:03:03.881Z,8.50
2019-03-27T21:05:34.976Z,8.03
2019-03-27T21:08:02.369Z,8.35
2019-03-27T21:10:30.761Z,8.60
2019-03-27T21:12:59.173Z,8.47
2019-03-27T21:15:27.573Z,8.57
2019-03-27T21:17:55.947Z,8.63
2019-03-27T21:20:24.341Z,7.95
2019-03-27T21:22:52.776Z,8.68
2019-03-27T21:25:21.226Z,7.40
2019-03-27T21:27:49.615Z,8.50
2019-03-27T21:30:18.010Z,8.83
2019-03-27T21:32:46.442Z,8.70
2019-03-27T21:35:14.846Z,9.13
2019-03-27T21:37:43.246Z,9.40
2019-03-27T21:40:11.760Z,9.80
2019-03-27T21:42:40.246Z,10.50
2019-03-27T21:45:09.234Z,10.03
2019-03-27T21:47:37.633Z,10.25
2019-03-27T21:50:07.111Z,10.13
2019-03-27T21:52:35.513Z,10.20
2019-03-27T21:55:21.501Z,10.20
2019-03-27T21:57:37.850Z,8.65
2019-03-27T22:00:07.525Z,9.03
2019-03-27T22:02:35.886Z,8.33
2019-03-27T22:05:05.338Z,8.93
2019-03-27T22:07:33.755Z,8.48
2019-03-27T22:10:02.237Z,9.03
2019-03-27T22:12:30.600Z,7.28
2019-03-27T22:14:58.983Z,7.93
2019-03-27T22:17:27.368Z,8.77
2019-03-27T22:19:55.779Z,9.23
2019-03-27T22:22:24.182Z,9.10
2019-03-27T22:24:52.629Z,9.53
2019-03-27T22:27:20.994Z,8.93
2019-03-27T22:29:49.472Z,9.88
2019-03-27T22:32:18.050Z,10.78
2019-03-27T22:34:46.470Z,12.03
2019-03-27T22:37:15.015Z,10.87
2019-03-27T22:39:43.423Z,10.85
2019-03-27T22:42:11.803Z,11.40
2019-03-27T22:44:40.224Z,10.93
2019-03-27T22:47:08.597Z,11.23
2019-03-27T22:49:37.003Z,11.40
2019-03-27T22:52:05.405Z,11.03
2019-03-27T22:54:33.839Z,10.93
2019-03-27T22:57:02.205Z,13.30
2019-03-27T22:59:30.609Z,11.40
2019-03-27T23:01:58.972Z,11.20
2019-03-27T23:04:27.420Z,9.83
2019-03-27T23:06:55.827Z,11.33
2019-03-27T23:09:24.201Z,11.00
2019-03-27T23:11:52.590Z,11.53
2019-03-27T23:14:20.973Z,11.33
2019-03-27T23:16:49.389Z,11.47
2019-03-27T23:19:17.767Z,11.53
2019-03-27T23:21:46.206Z,10.90
2019-03-27T23:24:14.731Z,10.83
2019-03-27T23:26:43.112Z,11.50
2019-03-27T23:29:11.526Z,10.17
2019-03-27T23:31:39.929Z,10.90
2019-03-27T23:34:08.438Z,11.07
2019-03-27T23:36:36.852Z,10.38
2019-03-27T23:39:07.101Z,10.40
2019-03-27T23:41:35.529Z,10.23
2019-03-27T23:44:04.031Z,9.33
2019-03-27T23:46:32.587Z,11.38
2019-03-27T23:49:03.055Z,10.72
2019-03-27T23:51:31.421Z,9.53
2019-03-27T23:53:59.832Z,10.30
2019-03-27T23:56:28.205Z,11.37
2019-03-27T23:58:56.638Z,10.38
